sensor_id;sensor_type;location;lat;lon;timestamp;pressure;altitude;pressure_sealevel;temperature;humidity
17450;BME280;8842;51.244;7.102;2022-09-01T00:00:48;99829.23;;;18.72;77.11
17450;BME280;8842;51.244;7.102;2022-09-01T00:11:04;99832.08;;;18.70;78.04
17450;BME280;8842;51.244;7.102;2022-09-01T00:26:34;99828.45;;;18.54;77.53
17450;BME280;8842;51.244;7.102;2022-09-01T00:42:03;99827.73;;;18.48;79.51
17450;BME280;8842;51.244;7.102;2022-09-01T00:52:22;99818.09;;;18.41;80.46
17450;BME280;8842;51.244;7.102;2022-09-01T01:02:40;99810.39;;;18.42;80.18
17450;BME280;8842;51.244;7.102;2022-09-01T01:12:59;99816.25;;;18.38;80.65
17450;BME280;8842;51.244;7.102;2022-09-01T01:23:22;99807.45;;;18.36;81.64
17450;BME280;8842;51.244;7.102;2022-09-01T01:33:42;99809.11;;;18.33;81.79
17450;BME280;8842;51.244;7.102;2022-09-01T01:43:58;99812.88;;;18.18;80.58
17450;BME280;8842;51.244;7.102;2022-09-01T01:54:15;99820.37;;;18.07;81.88
17450;BME280;8842;51.244;7.102;2022-09-01T02:04:34;99829.36;;;17.98;81.05
17450;BME280;8842;51.244;7.102;2022-09-01T02:14:50;99826.11;;;17.90;82.38
17450;BME280;8842;51.244;7.102;2022-09-01T02:19:57;99825.84;;;17.79;81.46
17450;BME280;8842;51.244;7.102;2022-09-01T02:30:13;99825.11;;;17.73;82.74
17450;BME280;8842;51.244;7.102;2022-09-01T02:40:29;99821.64;;;17.59;83.38
17450;BME280;8842;51.244;7.102;2022-09-01T02:45:33;99826.31;;;17.57;83.17
17450;BME280;8842;51.244;7.102;2022-09-01T02:55:53;99814.44;;;17.46;83.54
17450;BME280;8842;51.244;7.102;2022-09-01T03:06:11;99805.73;;;17.48;83.07
17450;BME280;8842;51.244;7.102;2022-09-01T03:16:27;99808.39;;;17.44;85.15
17450;BME280;8842;51.244;7.102;2022-09-01T03:26:45;99818.13;;;17.45;85.19
17450;BME280;8842;51.244;7.102;2022-09-01T03:37:03;99821.86;;;17.21;86.12
17450;BME280;8842;51.244;7.102;2022-09-01T03:47:21;99819.78;;;17.02;86.10
17450;BME280;8842;51.244;7.102;2022-09-01T03:57:38;99816.29;;;16.65;90.40
17450;BME280;8842;51.244;7.102;2022-09-01T04:07:59;99811.23;;;16.75;88.21
17450;BME280;8842;51.244;7.102;2022-09-01T04:18:17;99805.42;;;16.80;88.05
17450;BME280;8842;51.244;7.102;2022-09-01T04:28:39;99802.84;;;16.74;89.26
17450;BME280;8842;51.244;7.102;2022-09-01T04:38:56;99812.97;;;16.67;88.97
17450;BME280;8842;51.244;7.102;2022-09-01T04:49:15;99808.13;;;16.43;90.47
17450;BME280;8842;51.244;7.102;2022-09-01T04:59:34;99811.70;;;16.38;90.17
17450;BME280;8842;51.244;7.102;2022-09-01T05:09:52;99818.20;;;16.36;90.57
17450;BME280;8842;51.244;7.102;2022-09-01T05:20:10;99817.14;;;16.42;91.64
17450;BME280;8842;51.244;7.102;2022-09-01T05:30:26;99816.24;;;16.61;91.48
17450;BME280;8842;51.244;7.102;2022-09-01T05:40:42;99824.02;;;16.77;89.92
17450;BME280;8842;51.244;7.102;2022-09-01T05:45:47;99829.38;;;16.77;88.58
17450;BME280;8842;51.244;7.102;2022-09-01T05:56:06;99829.62;;;16.97;88.75
17450;BME280;8842;51.244;7.102;2022-09-01T06:06:29;99829.92;;;17.08;86.46
17450;BME280;8842;51.244;7.102;2022-09-01T06:11:35;99835.69;;;17.13;85.89
17450;BME280;8842;51.244;7.102;2022-09-01T06:21:51;99837.94;;;17.44;84.10
17450;BME280;8842;51.244;7.102;2022-09-01T06:26:56;99844.20;;;17.49;84.31
17450;BME280;8842;51.244;7.102;2022-09-01T06:37:12;99839.77;;;17.79;80.91
17450;BME280;8842;51.244;7.102;2022-09-01T06:42:16;99850.91;;;17.84;79.42
17450;BME280;8842;51.244;7.102;2022-09-01T06:52:32;99847.14;;;18.16;78.23
17450;BME280;8842;51.244;7.102;2022-09-01T07:02:54;99844.26;;;18.53;76.25
17450;BME280;8842;51.244;7.102;2022-09-01T07:13:13;99848.78;;;18.82;72.96
17450;BME280;8842;51.244;7.102;2022-09-01T07:23:31;99862.37;;;19.06;71.16
17450;BME280;8842;51.244;7.102;2022-09-01T07:28:35;99866.96;;;19.21;70.37
17450;BME280;8842;51.244;7.102;2022-09-01T07:38:51;99860.08;;;19.72;67.05
17450;BME280;8842;51.244;7.102;2022-09-01T07:54:21;99847.64;;;20.24;66.84
17450;BME280;8842;51.244;7.102;2022-09-01T07:59:27;99846.80;;;20.31;66.40
17450;BME280;8842;51.244;7.102;2022-09-01T08:09:43;99846.70;;;20.87;61.98
17450;BME280;8842;51.244;7.102;2022-09-01T08:25:12;99854.27;;;21.38;54.92
17450;BME280;8842;51.244;7.102;2022-09-01T08:30:18;99858.80;;;21.73;55.94
17450;BME280;8842;51.244;7.102;2022-09-01T08:40:35;99850.41;;;21.94;50.95
17450;BME280;8842;51.244;7.102;2022-09-01T08:56:09;99846.51;;;22.71;46.12
17450;BME280;8842;51.244;7.102;2022-09-01T09:06:32;99841.22;;;22.88;47.28
17450;BME280;8842;51.244;7.102;2022-09-01T09:11:48;99841.16;;;23.21;46.24
17450;BME280;8842;51.244;7.102;2022-09-01T09:22:06;99843.28;;;23.65;45.02
17450;BME280;8842;51.244;7.102;2022-09-01T09:32:45;99828.10;;;24.17;42.81
17450;BME280;8842;51.244;7.102;2022-09-01T09:37:50;99823.46;;;23.86;43.88
17450;BME280;8842;51.244;7.102;2022-09-01T09:48:28;99817.02;;;23.76;42.49
17450;BME280;8842;51.244;7.102;2022-09-01T09:58:45;99801.47;;;23.95;43.29
17450;BME280;8842;51.244;7.102;2022-09-01T10:09:13;99779.31;;;23.81;44.35
17450;BME280;8842;51.244;7.102;2022-09-01T10:19:28;99778.89;;;23.42;44.37
17450;BME280;8842;51.244;7.102;2022-09-01T10:29:49;99768.09;;;23.27;46.68
17450;BME280;8842;51.244;7.102;2022-09-01T10:40:20;99742.80;;;23.84;45.57
17450;BME280;8842;51.244;7.102;2022-09-01T10:45:31;99760.52;;;24.28;44.98
17450;BME280;8842;51.244;7.102;2022-09-01T10:55:58;99751.73;;;24.94;42.71
17450;BME280;8842;51.244;7.102;2022-09-01T11:06:44;99749.67;;;24.79;43.38
17450;BME280;8842;51.244;7.102;2022-09-01T11:17:18;99739.73;;;24.42;43.63
17450;BME280;8842;51.244;7.102;2022-09-01T11:22:42;99743.77;;;24.69;42.19
17450;BME280;8842;51.244;7.102;2022-09-01T11:33:48;99736.34;;;23.95;43.64
17450;BME280;8842;51.244;7.102;2022-09-01T11:38:57;99737.95;;;23.79;42.74
17450;BME280;8842;51.244;7.102;2022-09-01T11:44:11;99736.34;;;23.95;43.90
17450;BME280;8842;51.244;7.102;2022-09-01T11:54:39;99736.14;;;23.65;45.85
17450;BME280;8842;51.244;7.102;2022-09-01T12:04:58;99729.15;;;24.09;45.19
17450;BME280;8842;51.244;7.102;2022-09-01T12:15:20;99713.33;;;24.46;44.76
17450;BME280;8842;51.244;7.102;2022-09-01T12:25:33;99709.47;;;24.17;42.83
17450;BME280;8842;51.244;7.102;2022-09-01T12:35:48;99692.81;;;24.10;43.22
17450;BME280;8842;51.244;7.102;2022-09-01T12:46:04;99685.69;;;24.19;43.88
17450;BME280;8842;51.244;7.102;2022-09-01T12:51:18;99690.69;;;24.33;42.58
17450;BME280;8842;51.244;7.102;2022-09-01T12:56:29;99686.08;;;24.50;41.74
17450;BME280;8842;51.244;7.102;2022-09-01T13:12:15;99669.22;;;24.44;43.55
17450;BME280;8842;51.244;7.102;2022-09-01T13:17:20;99668.31;;;24.48;44.81
17450;BME280;8842;51.244;7.102;2022-09-01T13:27:36;99662.49;;;24.57;43.40
17450;BME280;8842;51.244;7.102;2022-09-01T13:37:52;99642.84;;;24.72;42.77
17450;BME280;8842;51.244;7.102;2022-09-01T13:48:08;99632.48;;;24.65;43.43
17450;BME280;8842;51.244;7.102;2022-09-01T13:58:23;99623.65;;;24.63;42.30
17450;BME280;8842;51.244;7.102;2022-09-01T14:08:40;99616.62;;;24.58;43.93
17450;BME280;8842;51.244;7.102;2022-09-01T14:13:44;99619.59;;;24.23;43.66
17450;BME280;8842;51.244;7.102;2022-09-01T14:29:20;99610.13;;;24.70;42.49
17450;BME280;8842;51.244;7.102;2022-09-01T14:39:38;99612.34;;;25.26;41.49
17450;BME280;8842;51.244;7.102;2022-09-01T14:49:55;99605.00;;;25.14;41.20
17450;BME280;8842;51.244;7.102;2022-09-01T15:00:12;99584.20;;;25.23;40.63
17450;BME280;8842;51.244;7.102;2022-09-01T15:05:17;99583.50;;;25.45;41.29
17450;BME280;8842;51.244;7.102;2022-09-01T15:15:36;99582.37;;;24.87;40.74
17450;BME280;8842;51.244;7.102;2022-09-01T15:20:42;99582.78;;;24.84;41.33
17450;BME280;8842;51.244;7.102;2022-09-01T15:31:08;99576.64;;;24.99;41.55
17450;BME280;8842;51.244;7.102;2022-09-01T15:36:16;99578.08;;;24.95;41.77
17450;BME280;8842;51.244;7.102;2022-09-01T15:46:36;99568.44;;;24.50;43.34
17450;BME280;8842;51.244;7.102;2022-09-01T15:51:43;99565.66;;;24.60;41.80
17450;BME280;8842;51.244;7.102;2022-09-01T15:56:49;99565.41;;;24.72;42.22
17450;BME280;8842;51.244;7.102;2022-09-01T16:07:09;99559.21;;;25.17;40.26
17450;BME280;8842;51.244;7.102;2022-09-01T16:17:33;99551.36;;;25.05;42.36
17450;BME280;8842;51.244;7.102;2022-09-01T16:33:04;99541.26;;;24.73;41.49
17450;BME280;8842;51.244;7.102;2022-09-01T16:43:28;99533.84;;;24.41;42.13
17450;BME280;8842;51.244;7.102;2022-09-01T16:59:16;99536.08;;;24.25;41.05
17450;BME280;8842;51.244;7.102;2022-09-01T17:15:03;99525.63;;;23.98;42.25
17450;BME280;8842;51.244;7.102;2022-09-01T17:20:11;99526.98;;;23.81;41.58
17450;BME280;8842;51.244;7.102;2022-09-01T17:36:02;99528.01;;;23.80;42.65
17450;BME280;8842;51.244;7.102;2022-09-01T17:46:27;99514.61;;;23.55;41.94
17450;BME280;8842;51.244;7.102;2022-09-01T17:51:36;99517.72;;;23.52;42.94
17450;BME280;8842;51.244;7.102;2022-09-01T18:02:07;99524.41;;;23.39;43.81
17450;BME280;8842;51.244;7.102;2022-09-01T18:17:44;99523.56;;;22.90;45.08
17450;BME280;8842;51.244;7.102;2022-09-01T18:28:04;99535.56;;;22.91;45.88
17450;BME280;8842;51.244;7.102;2022-09-01T18:38:32;99542.95;;;22.51;47.09
17450;BME280;8842;51.244;7.102;2022-09-01T18:48:59;99552.52;;;22.33;48.93
17450;BME280;8842;51.244;7.102;2022-09-01T19:04:31;99562.33;;;22.05;49.76
17450;BME280;8842;51.244;7.102;2022-09-01T19:14:55;99569.45;;;21.73;50.83
17450;BME280;8842;51.244;7.102;2022-09-01T19:25:13;99569.16;;;21.53;51.42
17450;BME280;8842;51.244;7.102;2022-09-01T19:35:49;99574.06;;;21.53;52.03
17450;BME280;8842;51.244;7.102;2022-09-01T19:41:00;99584.38;;;21.35;53.19
17450;BME280;8842;51.244;7.102;2022-09-01T19:51:18;99582.32;;;21.19;54.78
17450;BME280;8842;51.244;7.102;2022-09-01T19:56:27;99588.45;;;20.94;53.57
17450;BME280;8842;51.244;7.102;2022-09-01T20:01:39;99589.09;;;20.92;54.69
17450;BME280;8842;51.244;7.102;2022-09-01T20:12:00;99595.37;;;20.66;56.12
17450;BME280;8842;51.244;7.102;2022-09-01T20:22:24;99584.61;;;20.58;54.07
17450;BME280;8842;51.244;7.102;2022-09-01T20:32:49;99588.09;;;20.67;51.82
17450;BME280;8842;51.244;7.102;2022-09-01T20:48:26;99591.39;;;20.54;52.18
17450;BME280;8842;51.244;7.102;2022-09-01T20:58:56;99580.09;;;20.51;50.79
17450;BME280;8842;51.244;7.102;2022-09-01T21:09:19;99587.94;;;20.38;51.94
17450;BME280;8842;51.244;7.102;2022-09-01T21:25:17;99578.70;;;20.32;49.88
17450;BME280;8842;51.244;7.102;2022-09-01T21:35:34;99575.77;;;20.42;49.22
17450;BME280;8842;51.244;7.102;2022-09-01T21:45:50;99571.66;;;20.23;50.30
17450;BME280;8842;51.244;7.102;2022-09-01T21:56:06;99568.23;;;20.33;49.23
17450;BME280;8842;51.244;7.102;2022-09-01T22:01:11;99567.27;;;20.22;50.02
17450;BME280;8842;51.244;7.102;2022-09-01T22:11:27;99553.48;;;20.09;50.86
17450;BME280;8842;51.244;7.102;2022-09-01T22:21:44;99559.55;;;20.11;51.06
17450;BME280;8842;51.244;7.102;2022-09-01T22:26:49;99545.79;;;19.94;50.78
17450;BME280;8842;51.244;7.102;2022-09-01T22:37:05;99546.13;;;19.99;51.27
17450;BME280;8842;51.244;7.102;2022-09-01T22:42:09;99546.16;;;19.87;51.51
17450;BME280;8842;51.244;7.102;2022-09-01T22:52:25;99535.88;;;19.91;51.87
17450;BME280;8842;51.244;7.102;2022-09-01T23:02:42;99532.61;;;20.03;51.19
17450;BME280;8842;51.244;7.102;2022-09-01T23:12:59;99540.58;;;19.97;51.84
17450;BME280;8842;51.244;7.102;2022-09-01T23:28:27;99526.27;;;19.88;51.93
17450;BME280;8842;51.244;7.102;2022-09-01T23:38:43;99526.97;;;19.86;52.06
17450;BME280;8842;51.244;7.102;2022-09-01T23:49:02;99515.56;;;19.76;52.80
17450;BME280;8842;51.244;7.102;2022-09-01T23:59:18;99504.13;;;19.70;53.72
